Ridgebury Cindy A — V7CT6 — position and weather

sailwx.info

Track history (hours):
 
Tides and Currents Weather Stations Pressure Air Temp Water Temp Dewpoint Dewpoint Depression Visibility Wind Speed Wind Dir Waves Ship Positions

Ridgebury Cindy A

Last reported at 2018-Apr-21 06:49 UTC. Time now 2018-Apr-21 19:23 UTC.
Position N 29°21' W 094°47'.

Length 183 m; draft 10.2 m.

Type: Tanker. MMSI: 538005321.

Date/timePositionNaut miles runAvg speedWind from/ knotsBaromVisibWave heightAir tempDewpointWater temp
2018-Apr-21 06:49N 29°21' W 094°47'412.0
2018-Apr-21 06:30N 29°25' W 094°49'511.2
2018-Apr-21 06:00N 29°30' W 094°52'510.6
2018-Apr-21 05:30N 29°34' W 094°55'510.8
2018-Apr-21 05:01N 29°39' W 094°58'4 8.9
2018-Apr-21 04:30N 29°42' W 095°01'4 7.1
2018-Apr-21 04:00N 29°45' W 095°04'3 4.9
2018-Apr-21 03:29N 29°44' W 095°07'2 4.9
2018-Apr-21 03:00N 29°44' W 095°09'2 4.8
2018-Apr-21 02:30N 29°44' W 095°12'1 0.0
2018-Apr-19 23:12N 29°44' W 095°13'0 0.0
2018-Apr-19 20:30N 29°44' W 095°13'0 0.0
2018-Apr-19 18:42N 29°44' W 095°13'0 0.0
2018-Apr-19 17:54N 29°44' W 095°13'0 0.0
2018-Apr-19 16:06N 29°44' W 095°13'0 0.0
2018-Apr-19 14:18N 29°44' W 095°13'0 0.0
2018-Apr-19 12:57N 29°44' W 095°13'0 0.0
2018-Apr-19 09:54N 29°44' W 095°13'0 0.0
2018-Apr-19 09:30N 29°44' W 095°13'0 0.0
2018-Apr-19 08:54N 29°44' W 095°13'0 0.0
2018-Apr-19 08:24N 29°44' W 095°13'0 0.0
2018-Apr-19 05:36N 29°44' W 095°13'0 0.0
2018-Apr-19 05:18N 29°44' W 095°13'0 0.0
2018-Apr-19 00:06N 29°44' W 095°13'0 0.0
2018-Apr-18 23:48N 29°44' W 095°13'0 0.0
2018-Apr-18 23:30N 29°44' W 095°13'0 0.0
2018-Apr-18 22:54N 29°44' W 095°13'0 0.0
2018-Apr-18 22:18N 29°44' W 095°13'0 0.0
2018-Apr-18 22:00N 29°44' W 095°13'0 0.0
2018-Apr-18 21:18N 29°44' W 095°13'0 0.0
2018-Apr-18 20:30N 29°44' W 095°13'0 0.0
2018-Apr-18 20:00N 29°44' W 095°13'0 0.0
2018-Apr-18 19:30N 29°44' W 095°13'0 0.0
2018-Apr-18 18:54N 29°44' W 095°13'0 0.0
2018-Apr-18 18:30N 29°44' W 095°13'0 0.0
2018-Apr-18 18:00N 29°44' W 095°13'0 0.0
2018-Apr-18 17:30N 29°44' W 095°13'0 0.0
2018-Apr-18 17:00N 29°44' W 095°13'0 0.0
2018-Apr-18 16:28N 29°44' W 095°13'0 0.0
2018-Apr-18 16:01N 29°44' W 095°13'1 0.9
2018-Apr-18 15:26N 29°43' W 095°13'2 4.7
2018-Apr-18 14:58N 29°45' W 095°11'3 6.3
2018-Apr-18 14:30N 29°44' W 095°08'3 6.0
2018-Apr-18 13:59N 29°46' W 095°05'4 7.5
2018-Apr-18 13:31N 29°43' W 095°01'4 8.6
2018-Apr-18 13:01N 29°40' W 094°58'510.4
2018-Apr-18 12:31N 29°35' W 094°56'612.9
2018-Apr-18 12:00N 29°30' W 094°52'714.5
2018-Apr-18 11:29N 29°23' W 094°49'713.6
2018-Apr-18 11:00N 29°20' W 094°41'611.0
2018-Apr-18 10:30N 29°18' W 094°36'3 5.6
2018-Apr-18 09:56N 29°16' W 094°33'2 1.2
2018-Apr-18 08:13N 29°18' W 094°31'0 0.0
2018-Apr-18 07:31N 29°18' W 094°31'0 0.1
2018-Apr-18 07:25N 29°18' W 094°31'0 0.0
2018-Apr-18 06:55N 29°18' W 094°31'0 0.0
2018-Apr-18 04:19N 29°18' W 094°31'0 0.0
2018-Apr-18 03:10N 29°18' W 094°31'0 0.1
2018-Apr-18 01:35N 29°18' W 094°31'0 3.4
2018-Apr-18 01:30N 29°18' W 094°31'5 9.4
2018-Apr-18 01:00N 29°13' W 094°28'4 8.9
2018-Apr-18 00:30N 29°10' W 094°24'610.1
2018-Apr-17 23:55N 29°07' W 094°19'410.4
2018-Apr-17 23:29N 29°04' W 094°15'510.3
2018-Apr-17 22:59N 29°01' W 094°10'610.1
2018-Apr-17 22:26N 28°58' W 094°05'4 8.9
2018-Apr-17 21:56N 28°56' W 094°00'3 6.8
2018-Apr-17 21:30N 28°54' W 093°58'5 9.6
2018-Apr-17 21:00N 28°52' W 093°53'5 9.9
2018-Apr-17 20:30N 28°49' W 093°48'510.1
2018-Apr-17 19:59N 28°46' W 093°44'510.1
2018-Apr-17 19:29N 28°43' W 093°39'510.0
2018-Apr-17 19:00N 28°40' W 093°35'710.1
2018-Apr-17 18:18N 28°36' W 093°28'310.3
2018-Apr-17 17:59N 28°34' W 093°25'510.2
2018-Apr-17 17:30N 28°31' W 093°21'510.3
2018-Apr-17 17:00N 28°28' W 093°16'510.3
2018-Apr-17 16:30N 28°25' W 093°11'  
Track history (hours):
 
Tides and Currents Weather Stations Pressure Air Temp Water Temp Dewpoint Dewpoint Depression Visibility Wind Speed Wind Dir Waves Ship Positions

Ridgebury Cindy A

Last reported at 2018-Apr-21 06:49 UTC. Time now 2018-Apr-21 19:23 UTC.
Position N 29°21' W 094°47'.

Length 183 m; draft 10.2 m.

Type: Tanker. MMSI: 538005321.

Date/timePositionNaut miles runAvg speedWind from/ knotsBaromVisibWave heightAir tempDewpointWater temp
2018-Apr-21 06:49N 29°21' W 094°47'412.0
2018-Apr-21 06:30N 29°25' W 094°49'511.2
2018-Apr-21 06:00N 29°30' W 094°52'510.6
2018-Apr-21 05:30N 29°34' W 094°55'510.8
2018-Apr-21 05:01N 29°39' W 094°58'4 8.9
2018-Apr-21 04:30N 29°42' W 095°01'4 7.1
2018-Apr-21 04:00N 29°45' W 095°04'3 4.9
2018-Apr-21 03:29N 29°44' W 095°07'2 4.9
2018-Apr-21 03:00N 29°44' W 095°09'2 4.8
2018-Apr-21 02:30N 29°44' W 095°12'1 0.0
2018-Apr-19 23:12N 29°44' W 095°13'0 0.0
2018-Apr-19 20:30N 29°44' W 095°13'0 0.0
2018-Apr-19 18:42N 29°44' W 095°13'0 0.0
2018-Apr-19 17:54N 29°44' W 095°13'0 0.0
2018-Apr-19 16:06N 29°44' W 095°13'0 0.0
2018-Apr-19 14:18N 29°44' W 095°13'0 0.0
2018-Apr-19 12:57N 29°44' W 095°13'0 0.0
2018-Apr-19 09:54N 29°44' W 095°13'0 0.0
2018-Apr-19 09:30N 29°44' W 095°13'0 0.0
2018-Apr-19 08:54N 29°44' W 095°13'0 0.0
2018-Apr-19 08:24N 29°44' W 095°13'0 0.0
2018-Apr-19 05:36N 29°44' W 095°13'0 0.0
2018-Apr-19 05:18N 29°44' W 095°13'0 0.0
2018-Apr-19 00:06N 29°44' W 095°13'0 0.0
2018-Apr-18 23:48N 29°44' W 095°13'0 0.0
2018-Apr-18 23:30N 29°44' W 095°13'0 0.0
2018-Apr-18 22:54N 29°44' W 095°13'0 0.0
2018-Apr-18 22:18N 29°44' W 095°13'0 0.0
2018-Apr-18 22:00N 29°44' W 095°13'0 0.0
2018-Apr-18 21:18N 29°44' W 095°13'0 0.0
2018-Apr-18 20:30N 29°44' W 095°13'0 0.0
2018-Apr-18 20:00N 29°44' W 095°13'0 0.0
2018-Apr-18 19:30N 29°44' W 095°13'0 0.0
2018-Apr-18 18:54N 29°44' W 095°13'0 0.0
2018-Apr-18 18:30N 29°44' W 095°13'0 0.0
2018-Apr-18 18:00N 29°44' W 095°13'0 0.0
2018-Apr-18 17:30N 29°44' W 095°13'0 0.0
2018-Apr-18 17:00N 29°44' W 095°13'0 0.0
2018-Apr-18 16:28N 29°44' W 095°13'0 0.0
2018-Apr-18 16:01N 29°44' W 095°13'1 0.9
2018-Apr-18 15:26N 29°43' W 095°13'2 4.7
2018-Apr-18 14:58N 29°45' W 095°11'3 6.3
2018-Apr-18 14:30N 29°44' W 095°08'3 6.0
2018-Apr-18 13:59N 29°46' W 095°05'4 7.5
2018-Apr-18 13:31N 29°43' W 095°01'4 8.6
2018-Apr-18 13:01N 29°40' W 094°58'510.4
2018-Apr-18 12:31N 29°35' W 094°56'612.9
2018-Apr-18 12:00N 29°30' W 094°52'714.5
2018-Apr-18 11:29N 29°23' W 094°49'713.6
2018-Apr-18 11:00N 29°20' W 094°41'611.0
2018-Apr-18 10:30N 29°18' W 094°36'3 5.6
2018-Apr-18 09:56N 29°16' W 094°33'2 1.2
2018-Apr-18 08:13N 29°18' W 094°31'0 0.0
2018-Apr-18 07:31N 29°18' W 094°31'0 0.1
2018-Apr-18 07:25N 29°18' W 094°31'0 0.0
2018-Apr-18 06:55N 29°18' W 094°31'0 0.0
2018-Apr-18 04:19N 29°18' W 094°31'0 0.0
2018-Apr-18 03:10N 29°18' W 094°31'0 0.1
2018-Apr-18 01:35N 29°18' W 094°31'0 3.4
2018-Apr-18 01:30N 29°18' W 094°31'5 9.4
2018-Apr-18 01:00N 29°13' W 094°28'4 8.9
2018-Apr-18 00:30N 29°10' W 094°24'610.1
2018-Apr-17 23:55N 29°07' W 094°19'410.4
2018-Apr-17 23:29N 29°04' W 094°15'510.3
2018-Apr-17 22:59N 29°01' W 094°10'610.1
2018-Apr-17 22:26N 28°58' W 094°05'4 8.9
2018-Apr-17 21:56N 28°56' W 094°00'3 6.8
2018-Apr-17 21:30N 28°54' W 093°58'5 9.6
2018-Apr-17 21:00N 28°52' W 093°53'5 9.9
2018-Apr-17 20:30N 28°49' W 093°48'510.1
2018-Apr-17 19:59N 28°46' W 093°44'510.1
2018-Apr-17 19:29N 28°43' W 093°39'510.0
2018-Apr-17 19:00N 28°40' W 093°35'710.1
2018-Apr-17 18:18N 28°36' W 093°28'310.3
2018-Apr-17 17:59N 28°34' W 093°25'510.2
2018-Apr-17 17:30N 28°31' W 093°21'510.3
2018-Apr-17 17:00N 28°28' W 093°16'510.3
2018-Apr-17 16:30N 28°25' W 093°11'  

Dump ship's entire track history